Startpagina
METAR-TAF:

METAR-TAF

Vliegvelden :

Fairbanks, Alaska, Verenigde Staten

breedte: 64-48-14N, lengte: 147-52-34W, hoogte: 132 m

Actueel weer

Dit bericht is 24 minuten geleden gemaakt, om 17:53 UTC
Wind 3 kt uit het noordoosten
Temperatuur -16°C
Vochtigheid 84%
Druk 1021 hPa
Zicht: 16.1 km
Gebroken wolken op 18000 ft

METAR: PAFA 161753Z 05003KT 10SM BKN180 M16/M18 A3014 RMK AO2 SLP221 T11611183 11161 21222 58012

Tijdstip: 09:17 (18:17 UTC)

Verwachting

Dit bericht is 37 minuten geleden gemaakt, om 17:40 UTC
Verwachting geldig van 16 om 18 UTC tot 17 om 24 UTC
Wind kt uit het noorden
Zicht: 10 km
Weinig wolken op 10000 ft
Gebroken wolken op 20000 ft
Van 17 om 2200 UTC
Wind 2 kt uit het noordnoordoosten
Zicht: 10 km
Gebroken wolken op 10000 ft
Gebroken wolken op 20000 ft

TAF: PAFA 161740Z 1618/1724 00000KT P6SM FEW100 BKN200 FM172200 03002KT P6SM BKN100 BKN200

Waarnemingen en weersverwachtingen van meer dan 4000 vliegvelden (METAR en TAF).

De beschikbare stations zijn de gele en rode punten op de kaart.

Ga met uw muis naar het station om de naam te zien.

Klik dan om waarnemingen en weersverwachtingen te zien.

kaart wijzigen: klik op de groene knoppen met een zwart kruis om in te zoomen, op de groene knop met een streepje om uit te zoomen of op de groene pijlen voor aangrenzende kaarten.


METAR-TAF: